South Hampton, New Hampshire
Current Conditions -  °F | °C
As of 3:58 AM on Sunday 26 Oct 2014 (Local Time) from KPSM Reporting Station
Overcast Overcast  
Wind Chill: 51°   Ceiling: 20000
Heat Index: 51°   Visibility: 10mi
Dew Point: 44°   Wind: 6mph
Humidity: 78%   Direction: 270°W
Pressure: 29.4"   Gusts: NA
Location:  42.9089°N, 70.979°W
Report Text: KPSM 260758Z 27005KT 10SM OVC200 10/07 A2940 RMK AO2A SLP959 T01030066
Loading
Personal Weather Stations






























Interactive Weather Map
Tropical Storm Tracking
New forecast layout! Learn more

10-Day Weather Forecast

Advertisements
Track Severe Weather on mobile